createdAt,value
2023-05-19T00:00:24.530Z,62.6
2023-05-19T00:12:24.437Z,63.2
2023-05-19T00:24:24.514Z,64.1
2023-05-19T00:36:24.477Z,65.2
2023-05-19T00:48:24.487Z,66.5
2023-05-19T01:00:24.566Z,68.2
2023-05-19T01:12:24.434Z,68.5
2023-05-19T01:24:24.438Z,68.4
2023-05-19T01:36:24.549Z,67.9
2023-05-19T01:48:24.426Z,70.2
2023-05-19T02:00:24.546Z,71.1
2023-05-19T02:12:25.016Z,70.4
2023-05-19T02:24:24.430Z,74.8
2023-05-19T02:36:24.437Z,73.2
2023-05-19T02:48:24.535Z,73.2
2023-05-19T03:00:24.492Z,75.2
2023-05-19T03:12:24.435Z,77.3
2023-05-19T03:24:24.431Z,78.5
2023-05-19T03:36:24.485Z,79.1
2023-05-19T03:48:24.427Z,78.5
2023-05-19T04:00:24.555Z,79.2
2023-05-19T04:12:24.525Z,78.2
2023-05-19T04:24:24.506Z,80.8
2023-05-19T04:36:24.554Z,80.8
2023-05-19T04:48:24.540Z,77.5
2023-05-19T05:00:24.433Z,76.8
2023-05-19T05:12:24.670Z,75.7
2023-05-19T05:24:24.529Z,75.6
2023-05-19T05:36:24.574Z,75.1
2023-05-19T05:48:24.534Z,69.9
2023-05-19T06:00:24.511Z,67.0
2023-05-19T06:12:24.443Z,64.6
2023-05-19T06:24:24.428Z,59.8
2023-05-19T06:36:24.444Z,59.1
2023-05-19T06:48:24.500Z,58.7
2023-05-19T07:00:24.547Z,57.4
2023-05-19T07:12:24.436Z,56.7
2023-05-19T07:24:24.543Z,53.6
2023-05-19T07:36:24.424Z,53.6
2023-05-19T07:48:24.427Z,53.3
2023-05-19T08:00:24.634Z,50.4
2023-05-19T08:12:24.436Z,47.8
2023-05-19T08:24:24.429Z,47.4
2023-05-19T08:36:24.552Z,47.4
2023-05-19T08:48:24.451Z,51.9
2023-05-19T09:00:24.459Z,47.7
2023-05-19T09:12:24.479Z,45.6
2023-05-19T09:24:24.442Z,45.1
2023-05-19T09:36:24.525Z,45.5
2023-05-19T09:48:24.539Z,45.4
2023-05-19T10:00:24.498Z,47.6
2023-05-19T10:12:24.551Z,43.7
2023-05-19T10:24:24.534Z,44.8
2023-05-19T10:36:24.537Z,43.9
2023-05-19T10:48:24.537Z,42.9
2023-05-19T11:00:24.460Z,44.9
2023-05-19T11:12:25.058Z,42.0
2023-05-19T11:24:24.435Z,39.5
2023-05-19T11:36:24.486Z,39.2
2023-05-19T11:48:24.688Z,40.0
2023-05-19T12:00:24.659Z,40.3
2023-05-19T12:12:24.528Z,39.0
2023-05-19T12:24:24.507Z,37.0
2023-05-19T12:36:24.491Z,38.3
2023-05-19T12:48:24.480Z,42.7
2023-05-19T13:00:24.461Z,39.2
2023-05-19T13:12:24.432Z,37.7
2023-05-19T13:24:24.508Z,36.7
2023-05-19T13:36:24.496Z,35.7
2023-05-19T13:48:24.456Z,38.0
2023-05-19T14:00:24.528Z,38.7
2023-05-19T14:12:33.886Z,38.4
2023-05-19T14:24:24.568Z,39.7
2023-05-19T14:36:24.562Z,39.1
2023-05-19T14:48:24.536Z,41.8
2023-05-19T15:00:24.430Z,40.5
2023-05-19T15:12:24.529Z,46.9
2023-05-19T15:24:24.463Z,41.6
2023-05-19T15:36:24.485Z,42.1
2023-05-19T15:48:24.419Z,45.5
2023-05-19T16:00:24.485Z,42.0
2023-05-19T16:12:24.485Z,43.5
2023-05-19T16:24:24.460Z,43.6
2023-05-19T16:36:24.435Z,45.0
2023-05-19T16:48:24.545Z,44.5
2023-05-19T17:00:24.442Z,46.5
2023-05-19T17:12:24.443Z,45.9
2023-05-19T17:24:24.484Z,45.6
2023-05-19T17:36:24.445Z,46.0
2023-05-19T17:48:24.541Z,48.9
2023-05-19T18:00:24.429Z,49.8
2023-05-19T18:12:24.469Z,48.7
2023-05-19T18:24:24.511Z,48.8
2023-05-19T18:36:24.473Z,50.3
2023-05-19T18:48:24.579Z,51.5
2023-05-19T19:00:24.550Z,51.6
2023-05-19T19:12:24.521Z,53.2
2023-05-19T19:24:24.428Z,56.1
2023-05-19T19:36:25.183Z,55.6
2023-05-19T19:48:24.567Z,55.1
2023-05-19T20:00:24.456Z,55.7
2023-05-19T20:12:24.521Z,56.1
2023-05-19T20:24:24.431Z,56.5
2023-05-19T20:36:24.546Z,56.9
2023-05-19T20:48:24.476Z,57.5
2023-05-19T21:00:24.501Z,56.6
2023-05-19T21:12:24.475Z,56.8
2023-05-19T21:24:24.563Z,55.1
2023-05-19T21:36:24.495Z,54.0
2023-05-19T21:48:24.491Z,56.5
2023-05-19T22:00:24.508Z,57.1
2023-05-19T22:12:24.545Z,57.7
2023-05-19T22:24:24.537Z,56.5
2023-05-19T22:36:24.536Z,56.6
2023-05-19T22:48:24.539Z,59.6
2023-05-19T23:00:24.557Z,58.6
2023-05-19T23:12:24.494Z,58.6
2023-05-19T23:24:24.530Z,59.2
2023-05-19T23:36:24.518Z,59.7
2023-05-19T23:48:24.532Z,59.7
